createdAt,value
2022-09-09T00:00:54.990Z,14.10
2022-09-09T00:04:15.579Z,14.13
2022-09-09T00:07:27.369Z,14.10
2022-09-09T00:10:41.516Z,14.04
2022-09-09T00:13:50.010Z,14.07
2022-09-09T00:16:53.363Z,14.10
2022-09-09T00:20:01.421Z,14.16
2022-09-09T00:23:13.964Z,14.17
2022-09-09T00:26:31.100Z,14.13
2022-09-09T00:29:42.601Z,14.12
2022-09-09T00:32:43.950Z,14.14
2022-09-09T00:35:45.914Z,14.16
2022-09-09T00:38:50.706Z,14.15
2022-09-09T00:41:52.046Z,14.08
2022-09-09T00:45:00.711Z,14.04
2022-09-09T00:48:03.175Z,14.00
2022-09-09T00:51:11.690Z,14.02
2022-09-09T00:54:34.162Z,14.03
2022-09-09T00:57:35.862Z,14.10
2022-09-09T01:01:07.731Z,14.01
2022-09-09T01:04:11.060Z,14.02
2022-09-09T01:07:19.345Z,14.00
2022-09-09T01:10:27.319Z,13.99
2022-09-09T01:13:35.973Z,14.02
2022-09-09T01:16:37.371Z,14.06
2022-09-09T01:19:44.789Z,14.02
2022-09-09T01:23:05.080Z,14.03
2022-09-09T01:26:15.431Z,14.03
2022-09-09T01:29:17.087Z,14.01
2022-09-09T01:32:37.335Z,14.04
2022-09-09T01:35:51.981Z,13.99
2022-09-09T01:38:53.828Z,13.98
2022-09-09T01:41:55.215Z,13.96
2022-09-09T01:44:56.554Z,13.99
2022-09-09T01:47:57.942Z,13.96
2022-09-09T01:50:59.334Z,14.02
2022-09-09T01:54:00.766Z,14.11
2022-09-09T01:57:06.867Z,14.16
2022-09-09T02:00:12.713Z,14.01
2022-09-09T02:03:27.920Z,14.02
2022-09-09T02:06:36.134Z,14.02
2022-09-09T02:09:37.608Z,13.92
2022-09-09T02:12:43.315Z,13.86
2022-09-09T02:15:56.714Z,13.88
2022-09-09T02:19:02.338Z,13.93
2022-09-09T02:22:03.710Z,13.90
2022-09-09T02:25:06.428Z,13.87
2022-09-09T02:28:08.443Z,13.86
2022-09-09T02:31:10.228Z,13.91
2022-09-09T02:34:11.912Z,13.96
2022-09-09T02:37:13.307Z,13.98
2022-09-09T02:40:16.299Z,13.91
2022-09-09T02:43:17.747Z,13.83
2022-09-09T02:46:34.375Z,13.83
2022-09-09T02:49:54.545Z,13.73
2022-09-09T02:53:11.272Z,13.69
2022-09-09T02:56:19.651Z,13.66
2022-09-09T02:59:21.400Z,13.57
2022-09-09T03:02:22.820Z,13.53
2022-09-09T03:05:24.673Z,13.44
2022-09-09T03:08:26.030Z,13.42
2022-09-09T03:11:28.788Z,13.44
2022-09-09T03:14:31.421Z,13.53
2022-09-09T03:17:32.803Z,13.50
2022-09-09T03:20:34.131Z,13.52
2022-09-09T03:23:35.486Z,13.53
2022-09-09T03:26:38.583Z,13.48
2022-09-09T03:29:39.903Z,13.48
2022-09-09T03:32:41.324Z,13.44
2022-09-09T03:35:49.777Z,13.42
2022-09-09T03:38:51.732Z,13.44
2022-09-09T03:41:53.145Z,13.42
2022-09-09T03:44:55.566Z,13.39
2022-09-09T03:47:58.074Z,13.37
2022-09-09T03:51:01.785Z,13.38
2022-09-09T03:54:05.976Z,13.36
2022-09-09T03:57:07.393Z,13.34
2022-09-09T04:00:09.150Z,13.34
2022-09-09T04:03:10.583Z,13.34
2022-09-09T04:06:13.130Z,13.26
2022-09-09T04:09:14.516Z,13.31
2022-09-09T04:12:15.835Z,13.34
2022-09-09T04:15:17.939Z,13.30
2022-09-09T04:18:20.335Z,13.13
2022-09-09T04:21:22.321Z,13.04
2022-09-09T04:24:23.655Z,13.02
2022-09-09T04:27:24.998Z,13.02
2022-09-09T04:30:26.429Z,12.99
2022-09-09T04:33:27.796Z,12.96
2022-09-09T04:36:29.104Z,12.98
2022-09-09T04:39:30.490Z,12.92
2022-09-09T04:42:35.580Z,12.91
2022-09-09T04:45:37.739Z,12.85
2022-09-09T04:48:39.093Z,12.74
2022-09-09T04:51:40.420Z,12.82
2022-09-09T04:54:42.838Z,12.84
2022-09-09T04:57:44.250Z,12.75
2022-09-09T05:00:45.702Z,12.77
2022-09-09T05:03:47.111Z,12.74
2022-09-09T05:06:48.462Z,12.70
2022-09-09T05:09:50.461Z,12.73
2022-09-09T05:12:55.210Z,12.76
2022-09-09T05:15:56.555Z,12.81
2022-09-09T05:18:58.056Z,12.83
2022-09-09T05:21:59.640Z,12.86
2022-09-09T05:25:02.514Z,12.95
2022-09-09T05:28:03.870Z,13.02
2022-09-09T05:31:06.162Z,13.11
2022-09-09T05:34:07.540Z,13.04
2022-09-09T05:37:08.862Z,13.08
2022-09-09T05:40:12.157Z,13.09
2022-09-09T05:43:13.589Z,13.07
2022-09-09T05:46:16.058Z,13.15
2022-09-09T05:49:17.517Z,13.20
2022-09-09T05:52:18.850Z,13.30
2022-09-09T05:55:20.194Z,13.33
2022-09-09T05:58:21.555Z,13.41
2022-09-09T06:01:27.390Z,13.44
2022-09-09T06:04:28.764Z,13.52
2022-09-09T06:07:30.086Z,13.57
2022-09-09T06:10:31.403Z,13.67
2022-09-09T06:13:32.863Z,13.74
2022-09-09T06:16:34.505Z,13.74
2022-09-09T06:19:35.958Z,13.83
2022-09-09T06:22:37.337Z,13.89
2022-09-09T06:25:41.649Z,13.94
2022-09-09T06:28:43.802Z,14.02
2022-09-09T06:31:45.693Z,14.06
2022-09-09T06:34:47.969Z,14.11
2022-09-09T06:37:49.786Z,14.20
2022-09-09T06:40:55.790Z,14.29
2022-09-09T06:43:57.184Z,14.38
2022-09-09T06:46:58.628Z,14.51
2022-09-09T06:50:00.026Z,14.48
2022-09-09T06:53:01.406Z,14.58
2022-09-09T06:56:03.509Z,14.72
2022-09-09T06:59:06.033Z,14.85
2022-09-09T07:02:08.281Z,14.95
2022-09-09T07:05:09.766Z,15.02
2022-09-09T07:08:11.547Z,15.11
2022-09-09T07:11:12.879Z,15.25
2022-09-09T07:14:14.929Z,15.28
2022-09-09T07:17:16.288Z,15.39
2022-09-09T07:20:17.681Z,15.42
2022-09-09T07:23:19.067Z,15.50
2022-09-09T07:26:21.420Z,15.59
2022-09-09T07:29:22.828Z,15.68
2022-09-09T07:32:24.182Z,15.77
2022-09-09T07:35:25.517Z,15.83
2022-09-09T07:38:26.862Z,15.86
2022-09-09T07:41:35.421Z,15.95
2022-09-09T07:44:37.394Z,16.05
2022-09-09T07:47:38.742Z,16.08
2022-09-09T07:50:40.412Z,16.06
2022-09-09T07:53:41.775Z,16.13
2022-09-09T07:56:43.527Z,16.32
2022-09-09T07:59:45.949Z,16.39
2022-09-09T08:02:47.433Z,16.58
2022-09-09T08:05:48.822Z,16.80
2022-09-09T08:08:53.863Z,17.01
2022-09-09T08:11:56.273Z,17.35
2022-09-09T08:14:57.662Z,17.42
2022-09-09T08:17:59.023Z,17.76
2022-09-09T08:21:05.743Z,17.65
2022-09-09T08:24:07.205Z,18.10
2022-09-09T08:27:08.648Z,18.12
2022-09-09T08:30:10.307Z,18.95
2022-09-09T08:33:11.654Z,19.54
2022-09-09T08:36:14.230Z,20.08
2022-09-09T08:39:16.063Z,20.30
2022-09-09T08:42:35.297Z,20.43
2022-09-09T08:45:38.754Z,19.91
2022-09-09T08:48:59.137Z,19.67
2022-09-09T08:52:00.829Z,19.05
2022-09-09T08:55:13.527Z,18.66
2022-09-09T08:58:18.859Z,18.65
2022-09-09T09:01:27.456Z,18.41
2022-09-09T09:04:38.330Z,18.30
2022-09-09T09:07:52.490Z,18.31
2022-09-09T09:10:54.861Z,18.30
2022-09-09T09:13:58.704Z,18.17
2022-09-09T09:17:14.083Z,18.06
2022-09-09T09:20:16.060Z,17.75
2022-09-09T09:23:20.525Z,17.55
2022-09-09T09:26:23.151Z,17.24
2022-09-09T09:29:24.565Z,17.10
2022-09-09T09:32:25.953Z,16.64
2022-09-09T09:35:27.264Z,16.38
2022-09-09T09:41:50.657Z,16.18
2022-09-09T09:44:52.028Z,15.78
2022-09-09T09:48:04.108Z,15.32
2022-09-09T09:51:13.312Z,14.89
2022-09-09T09:54:19.528Z,14.72
2022-09-09T09:57:24.816Z,14.61
2022-09-09T10:00:26.159Z,14.56
2022-09-09T10:03:28.549Z,14.40
2022-09-09T10:06:30.580Z,14.29
2022-09-09T10:09:35.106Z,14.34
2022-09-09T10:12:36.429Z,14.43
2022-09-09T10:15:41.500Z,14.28
2022-09-09T10:18:46.036Z,14.45
2022-09-09T10:22:07.718Z,14.51
2022-09-09T10:25:35.401Z,14.62
2022-09-09T10:28:59.175Z,14.68
2022-09-09T10:32:21.968Z,14.73
2022-09-09T10:35:23.264Z,14.90
2022-09-09T10:38:44.310Z,15.13
2022-09-09T10:41:49.490Z,16.10
2022-09-09T10:45:09.754Z,17.65
2022-09-09T10:48:27.374Z,18.05
2022-09-09T10:51:47.305Z,17.98
2022-09-09T10:54:58.379Z,18.32
2022-09-09T10:57:59.899Z,18.60
2022-09-09T11:01:03.369Z,18.69
2022-09-09T11:04:06.659Z,19.05
2022-09-09T11:07:11.659Z,19.42
2022-09-09T11:10:19.042Z,19.04
2022-09-09T11:13:25.651Z,18.47
2022-09-09T11:16:46.491Z,19.28
2022-09-09T11:19:47.983Z,20.18
2022-09-09T11:22:54.672Z,20.64
2022-09-09T11:25:57.857Z,21.30
2022-09-09T11:29:10.208Z,21.77
2022-09-09T11:32:28.590Z,21.74
2022-09-09T11:35:35.467Z,21.83
2022-09-09T11:38:42.824Z,22.61
2022-09-09T11:41:44.139Z,22.54
2022-09-09T11:44:45.495Z,22.14
2022-09-09T11:47:56.799Z,21.85
2022-09-09T11:54:03.835Z,19.30
2022-09-09T11:57:05.802Z,19.38
2022-09-09T12:00:07.395Z,19.60
2022-09-09T12:03:28.974Z,20.53
2022-09-09T12:06:33.001Z,20.59
2022-09-09T12:09:43.501Z,20.93
2022-09-09T12:12:44.856Z,20.34
2022-09-09T12:15:50.755Z,20.50
2022-09-09T12:18:52.412Z,21.32
2022-09-09T12:22:01.943Z,21.67
2022-09-09T12:25:10.539Z,21.53
2022-09-09T12:28:18.015Z,20.72
2022-09-09T12:31:26.879Z,20.41
2022-09-09T12:34:36.977Z,22.02
2022-09-09T12:37:39.203Z,22.21
2022-09-09T12:40:40.646Z,21.35
2022-09-09T12:43:42.040Z,21.25
2022-09-09T12:46:44.432Z,21.96
2022-09-09T12:49:45.814Z,21.73
2022-09-09T12:52:48.194Z,21.63
2022-09-09T12:55:57.242Z,20.49
2022-09-09T12:58:59.223Z,20.50
2022-09-09T13:02:00.738Z,20.38
2022-09-09T13:05:18.619Z,20.56
2022-09-09T13:08:21.456Z,21.80
2022-09-09T13:11:27.384Z,22.63
2022-09-09T13:14:33.559Z,21.35
2022-09-09T13:17:35.705Z,20.88
2022-09-09T13:20:38.103Z,22.14
2022-09-09T13:23:40.074Z,22.99
2022-09-09T13:26:41.374Z,23.61
2022-09-09T13:29:42.714Z,23.13
2022-09-09T13:32:44.087Z,22.33
2022-09-09T13:35:49.235Z,22.12
2022-09-09T13:38:54.302Z,22.43
2022-09-09T13:41:55.830Z,21.05
2022-09-09T13:44:57.232Z,21.62
2022-09-09T13:47:58.589Z,21.79
2022-09-09T13:51:00.983Z,22.36
2022-09-09T13:54:02.303Z,22.98
2022-09-09T13:57:05.356Z,23.36
2022-09-09T14:00:07.920Z,22.34
2022-09-09T14:03:09.413Z,23.84
2022-09-09T14:06:11.271Z,24.44
2022-09-09T14:09:13.299Z,23.59
2022-09-09T14:12:15.987Z,21.97
2022-09-09T14:15:17.383Z,21.39
2022-09-09T14:18:19.140Z,21.49
2022-09-09T14:21:21.078Z,20.71
2022-09-09T14:24:22.447Z,20.26
2022-09-09T14:27:23.775Z,19.97
2022-09-09T14:30:25.103Z,19.97
2022-09-09T14:33:26.532Z,20.17
2022-09-09T14:36:27.882Z,22.06
2022-09-09T14:39:29.226Z,22.20
2022-09-09T14:42:31.237Z,21.83
2022-09-09T14:45:32.818Z,21.86
2022-09-09T14:48:34.993Z,21.77
2022-09-09T14:51:36.398Z,21.67
2022-09-09T14:54:37.760Z,21.42
2022-09-09T14:57:41.199Z,20.59
2022-09-09T15:00:42.523Z,20.01
2022-09-09T15:03:44.487Z,19.71
2022-09-09T15:06:49.121Z,19.50
2022-09-09T15:09:50.638Z,19.42
2022-09-09T15:12:52.032Z,19.52
2022-09-09T15:15:55.135Z,19.47
2022-09-09T15:18:57.903Z,19.39
2022-09-09T15:22:00.924Z,19.21
2022-09-09T15:25:02.314Z,18.98
2022-09-09T15:28:03.632Z,18.98
2022-09-09T15:31:12.946Z,18.96
2022-09-09T15:34:14.716Z,18.69
2022-09-09T15:37:16.095Z,18.71
2022-09-09T15:40:17.478Z,18.69
2022-09-09T15:43:18.866Z,18.69
2022-09-09T15:46:27.304Z,18.57
2022-09-09T15:49:28.801Z,18.61
2022-09-09T15:52:30.210Z,18.71
2022-09-09T15:55:31.520Z,18.69
2022-09-09T15:58:33.289Z,18.62
2022-09-09T16:01:34.723Z,18.63
2022-09-09T16:04:36.197Z,18.52
2022-09-09T16:07:38.010Z,18.64
2022-09-09T16:10:39.345Z,18.66
2022-09-09T16:13:40.871Z,18.62
2022-09-09T16:16:42.958Z,18.49
2022-09-09T16:19:44.303Z,18.37
2022-09-09T16:22:45.662Z,18.35
2022-09-09T16:25:56.356Z,18.27
2022-09-09T16:28:59.783Z,18.28
2022-09-09T16:32:03.967Z,18.17
2022-09-09T16:35:06.259Z,18.05
2022-09-09T16:38:07.991Z,17.99
2022-09-09T16:41:09.743Z,17.93
2022-09-09T16:44:11.469Z,17.88
2022-09-09T16:47:12.823Z,17.72
2022-09-09T16:50:14.180Z,17.70
2022-09-09T16:53:15.995Z,17.60
2022-09-09T16:56:19.628Z,17.43
2022-09-09T16:59:21.627Z,17.50
2022-09-09T17:02:23.179Z,17.32
2022-09-09T17:05:26.051Z,17.01
2022-09-09T17:08:27.379Z,17.14
2022-09-09T17:11:29.507Z,17.09
2022-09-09T17:14:32.071Z,16.66
2022-09-09T17:17:33.464Z,16.48
2022-09-09T17:20:46.051Z,16.28
2022-09-09T17:23:48.193Z,16.20
2022-09-09T17:26:49.558Z,16.12
2022-09-09T17:29:50.896Z,16.02
2022-09-09T17:32:52.293Z,16.05
2022-09-09T17:35:53.850Z,15.95
2022-09-09T17:38:55.226Z,15.77
2022-09-09T17:41:56.868Z,15.73
2022-09-09T17:44:58.230Z,15.49
2022-09-09T17:47:59.568Z,15.32
2022-09-09T17:51:00.923Z,15.07
2022-09-09T17:54:03.347Z,14.95
2022-09-09T17:57:04.768Z,15.06
2022-09-09T18:00:06.582Z,14.99
2022-09-09T18:03:08.079Z,14.93
2022-09-09T18:06:09.996Z,14.88
2022-09-09T18:09:13.292Z,14.79
2022-09-09T18:12:14.698Z,14.71
2022-09-09T18:15:24.165Z,14.60
2022-09-09T18:18:29.890Z,14.50
2022-09-09T18:21:33.116Z,14.39
2022-09-09T18:24:34.471Z,14.42
2022-09-09T18:27:35.792Z,14.37
2022-09-09T18:30:40.066Z,14.39
2022-09-09T18:33:43.074Z,14.43
2022-09-09T18:36:45.201Z,14.39
2022-09-09T18:39:47.062Z,14.22
2022-09-09T18:42:48.596Z,14.28
2022-09-09T18:45:49.939Z,14.27
2022-09-09T18:48:51.602Z,14.17
2022-09-09T18:51:52.933Z,14.21
2022-09-09T18:54:54.385Z,14.18
2022-09-09T18:57:58.705Z,14.12
2022-09-09T19:01:00.307Z,14.07
2022-09-09T19:04:02.080Z,14.12
2022-09-09T19:07:03.688Z,14.11
2022-09-09T19:10:05.202Z,13.99
2022-09-09T19:13:06.610Z,13.94
2022-09-09T19:16:08.845Z,13.91
2022-09-09T19:19:14.453Z,13.86
2022-09-09T19:22:15.803Z,13.78
2022-09-09T19:25:17.146Z,13.72
2022-09-09T19:28:18.499Z,13.70
2022-09-09T19:31:19.921Z,13.78
2022-09-09T19:34:21.591Z,13.78
2022-09-09T19:37:22.956Z,13.76
2022-09-09T19:40:24.302Z,13.73
2022-09-09T19:43:25.639Z,13.75
2022-09-09T19:46:27.225Z,13.71
2022-09-09T19:49:30.520Z,13.63
2022-09-09T19:52:32.011Z,13.60
2022-09-09T19:55:35.393Z,13.40
2022-09-09T19:58:37.575Z,13.34
2022-09-09T20:01:41.405Z,13.18
2022-09-09T20:04:43.269Z,13.21
2022-09-09T20:07:44.788Z,13.19
2022-09-09T20:10:52.999Z,13.09
2022-09-09T20:13:54.340Z,13.22
2022-09-09T20:16:56.334Z,13.16
2022-09-09T20:19:57.656Z,13.12
2022-09-09T20:22:59.307Z,13.11
2022-09-09T20:26:01.628Z,13.15
2022-09-09T20:29:05.455Z,13.16
2022-09-09T20:32:06.890Z,13.18
2022-09-09T20:35:08.412Z,13.15
2022-09-09T20:38:09.749Z,13.15
2022-09-09T20:41:14.230Z,13.14
2022-09-09T20:44:16.874Z,13.15
2022-09-09T20:47:18.925Z,13.19
2022-09-09T20:50:20.393Z,13.13
2022-09-09T20:53:22.985Z,13.13
2022-09-09T20:56:24.600Z,13.15
2022-09-09T20:59:27.089Z,13.07
2022-09-09T21:02:28.539Z,13.12
2022-09-09T21:05:30.080Z,13.12
2022-09-09T21:08:31.574Z,13.20
2022-09-09T21:11:33.008Z,13.23
2022-09-09T21:14:34.364Z,13.36
2022-09-09T21:17:35.736Z,13.35
2022-09-09T21:20:37.968Z,13.37
2022-09-09T21:23:39.298Z,13.42
2022-09-09T21:26:40.659Z,13.42
2022-09-09T21:29:42.710Z,13.46
2022-09-09T21:32:44.085Z,13.52
2022-09-09T21:35:45.404Z,13.57
2022-09-09T21:38:46.833Z,13.66
2022-09-09T21:41:48.304Z,13.70
2022-09-09T21:44:49.769Z,13.74
2022-09-09T21:47:52.593Z,13.91
2022-09-09T21:50:54.744Z,14.00
2022-09-09T21:53:56.537Z,14.00
2022-09-09T21:56:58.093Z,13.27
2022-09-09T22:00:00.067Z,13.19
2022-09-09T22:03:02.690Z,13.10
2022-09-09T22:06:04.849Z,13.17
2022-09-09T22:09:06.172Z,13.14
2022-09-09T22:12:07.487Z,13.12
2022-09-09T22:15:09.060Z,13.08
2022-09-09T22:18:10.494Z,13.07
2022-09-09T22:21:15.681Z,13.05
2022-09-09T22:24:17.146Z,13.05
2022-09-09T22:27:18.469Z,13.03
2022-09-09T22:30:19.825Z,13.03
2022-09-09T22:33:21.161Z,13.03
2022-09-09T22:36:22.615Z,12.96
2022-09-09T22:39:23.943Z,12.87
2022-09-09T22:42:25.357Z,12.71
2022-09-09T22:45:27.157Z,12.63
2022-09-09T22:48:32.395Z,12.64
2022-09-09T22:51:34.312Z,12.61
2022-09-09T22:54:35.639Z,12.56
2022-09-09T22:57:37.398Z,12.56
2022-09-09T23:00:40.062Z,12.54
2022-09-09T23:03:42.160Z,12.54
2022-09-09T23:06:45.001Z,12.48
2022-09-09T23:09:47.603Z,12.56
2022-09-09T23:12:49.010Z,12.62
2022-09-09T23:15:51.771Z,12.53
2022-09-09T23:18:54.974Z,12.62
2022-09-09T23:21:56.342Z,12.60
2022-09-09T23:24:57.846Z,12.61
2022-09-09T23:27:59.201Z,12.63
2022-09-09T23:31:01.050Z,12.58
2022-09-09T23:34:02.669Z,12.53
2022-09-09T23:37:04.043Z,12.62
2022-09-09T23:40:05.588Z,12.53
2022-09-09T23:43:07.135Z,12.48
2022-09-09T23:46:09.189Z,12.54
2022-09-09T23:49:10.597Z,12.52
2022-09-09T23:52:11.947Z,12.54
2022-09-09T23:55:13.349Z,12.64
2022-09-09T23:58:17.687Z,12.65
